createdAt,value
2022-11-25T00:01:21.722Z,95596.00
2022-11-25T00:06:49.637Z,95596.00
2022-11-25T00:12:18.139Z,95603.00
2022-11-25T00:17:47.055Z,95605.00
2022-11-25T00:23:17.916Z,95605.00
2022-11-25T00:28:48.159Z,95599.00
2022-11-25T00:34:16.662Z,95601.00
2022-11-25T00:39:45.267Z,95594.00
2022-11-25T00:45:14.289Z,95586.00
2022-11-25T00:50:46.794Z,95599.00
2022-11-25T00:56:18.158Z,95602.00
2022-11-25T01:01:46.784Z,95598.00
2022-11-25T01:07:21.487Z,95600.00
2022-11-25T01:12:53.207Z,95599.00
2022-11-25T01:18:32.711Z,95595.00
2022-11-25T01:24:06.887Z,95580.00
2022-11-25T01:29:42.002Z,95571.00
2022-11-25T01:35:30.131Z,95578.00
2022-11-25T01:40:59.891Z,95581.00
2022-11-25T01:46:36.459Z,95582.00
2022-11-25T01:52:24.469Z,95582.00
2022-11-25T01:58:10.425Z,95585.00
2022-11-25T02:03:45.984Z,95574.00
2022-11-25T02:09:17.864Z,95580.00
2022-11-25T02:14:50.132Z,95580.00
2022-11-25T02:20:28.325Z,95569.00
2022-11-25T02:26:02.507Z,95568.00
2022-11-25T02:31:33.974Z,95566.00
2022-11-25T02:37:04.542Z,95571.00
2022-11-25T02:42:39.042Z,95562.00
2022-11-25T02:48:08.787Z,95564.00
2022-11-25T02:53:39.102Z,95566.00
2022-11-25T02:59:07.920Z,95579.00
2022-11-25T03:04:37.440Z,95566.00
2022-11-25T03:10:06.309Z,95572.00
2022-11-25T03:15:37.213Z,95581.00
2022-11-25T03:21:05.307Z,95563.00
2022-11-25T03:26:33.252Z,95566.00
2022-11-25T03:32:04.185Z,95573.00
2022-11-25T03:37:34.774Z,95563.00
2022-11-25T03:43:02.830Z,95571.00
2022-11-25T03:48:30.796Z,95571.00
2022-11-25T03:53:58.805Z,95581.00
2022-11-25T03:59:26.792Z,95572.00
2022-11-25T04:04:54.606Z,95554.00
2022-11-25T04:10:23.491Z,95586.00
2022-11-25T04:15:52.449Z,95576.00
2022-11-25T04:21:21.578Z,95588.00
2022-11-25T04:26:49.716Z,95583.00
2022-11-25T04:32:19.135Z,95599.00
2022-11-25T04:37:47.230Z,95594.00
2022-11-25T04:43:16.293Z,95601.00
2022-11-25T04:48:50.751Z,95609.00
2022-11-25T04:54:19.917Z,95610.00
2022-11-25T04:59:49.118Z,95609.00
2022-11-25T05:05:17.217Z,95602.00
2022-11-25T05:10:46.017Z,95604.00
2022-11-25T05:16:14.425Z,95604.00
2022-11-25T05:21:42.851Z,95597.00
2022-11-25T05:27:11.562Z,95603.00
2022-11-25T05:32:40.718Z,95609.00
2022-11-25T05:38:11.073Z,95603.00
2022-11-25T05:43:39.873Z,95608.00
2022-11-25T05:49:07.732Z,95612.00
2022-11-25T05:54:35.837Z,95609.00
2022-11-25T06:00:05.871Z,95606.00
2022-11-25T06:05:45.909Z,95624.00
2022-11-25T06:11:17.078Z,95625.00
2022-11-25T06:16:45.941Z,95619.00
2022-11-25T06:22:28.760Z,95618.00
2022-11-25T06:28:12.339Z,95620.00
2022-11-25T06:33:45.862Z,95607.00
2022-11-25T06:39:14.261Z,95615.00
2022-11-25T06:44:42.403Z,95612.00
2022-11-25T06:50:10.744Z,95618.00
2022-11-25T06:55:39.142Z,95616.00
2022-11-25T07:01:19.421Z,95624.00
2022-11-25T07:06:48.871Z,95615.00
2022-11-25T07:12:17.021Z,95607.00
2022-11-25T07:17:46.463Z,95615.00
2022-11-25T07:23:14.535Z,95616.00
2022-11-25T07:28:44.312Z,95627.00
2022-11-25T07:34:17.955Z,95635.00
2022-11-25T07:39:46.072Z,95650.00
2022-11-25T07:45:14.299Z,95638.00
2022-11-25T07:50:46.984Z,95646.00
2022-11-25T07:56:16.245Z,95641.00
2022-11-25T08:01:44.828Z,95651.00
2022-11-25T08:07:12.979Z,95663.00
2022-11-25T08:12:41.063Z,95667.00
2022-11-25T08:18:09.159Z,95667.00
2022-11-25T08:23:39.169Z,95666.00
2022-11-25T08:29:07.996Z,95663.00
2022-11-25T08:34:36.190Z,95659.00
2022-11-25T08:40:10.688Z,95666.00
2022-11-25T08:45:40.203Z,95661.00
2022-11-25T08:51:11.145Z,95671.00
2022-11-25T08:56:39.337Z,95689.00
2022-11-25T09:02:08.571Z,95697.00
2022-11-25T09:07:36.730Z,95697.00
2022-11-25T09:13:05.068Z,95715.00
2022-11-25T09:18:35.423Z,95724.00
2022-11-25T09:24:03.676Z,95738.00
2022-11-25T09:29:31.771Z,95746.00
2022-11-25T09:34:59.784Z,95743.00
2022-11-25T09:40:30.662Z,95740.00
2022-11-25T09:46:42.408Z,95738.00
2022-11-25T09:52:14.056Z,95735.00
2022-11-25T09:58:12.790Z,95731.00
2022-11-25T10:03:48.000Z,95736.00
2022-11-25T10:09:18.242Z,95750.00
2022-11-25T10:14:50.178Z,95740.00
2022-11-25T10:20:21.401Z,95747.00
2022-11-25T10:25:53.857Z,95746.00
2022-11-25T10:31:35.590Z,95749.00
2022-11-25T10:37:07.053Z,95753.00
2022-11-25T10:42:37.026Z,95758.00
2022-11-25T10:48:22.584Z,95759.00
2022-11-25T10:54:27.617Z,95756.00
2022-11-25T10:59:58.394Z,95745.00
2022-11-25T11:05:29.840Z,95749.00
2022-11-25T11:11:16.078Z,95744.00
2022-11-25T11:16:46.228Z,95743.00
2022-11-25T11:22:24.229Z,95742.00
2022-11-25T11:27:52.569Z,95743.00
2022-11-25T11:33:48.660Z,95746.00
2022-11-25T11:39:46.933Z,95740.00
2022-11-25T11:45:23.871Z,95744.00
2022-11-25T11:51:03.816Z,95744.00
2022-11-25T11:56:44.637Z,95739.00
2022-11-25T12:02:40.813Z,95727.00
2022-11-25T12:08:39.967Z,95734.00
2022-11-25T12:14:31.430Z,95726.00
2022-11-25T12:20:25.776Z,95723.00
2022-11-25T12:25:59.157Z,95725.00
2022-11-25T12:31:35.475Z,95726.00
2022-11-25T12:37:15.417Z,95724.00
2022-11-25T12:42:44.898Z,95724.00
2022-11-25T12:48:17.345Z,95723.00
2022-11-25T12:54:16.018Z,95729.00
2022-11-25T13:00:40.056Z,95727.00
2022-11-25T13:06:03.275Z,95740.00
2022-11-25T13:11:31.893Z,95729.00
2022-11-25T13:17:01.352Z,95740.00
2022-11-25T13:22:29.901Z,95747.00
2022-11-25T13:28:00.145Z,95746.00
2022-11-25T13:33:28.158Z,95748.00
2022-11-25T13:38:56.228Z,95746.00
2022-11-25T13:44:34.974Z,95757.00
2022-11-25T13:50:10.733Z,95755.00
2022-11-25T13:55:42.301Z,95764.00
2022-11-25T14:01:29.949Z,95765.00
2022-11-25T14:06:58.497Z,95770.00
2022-11-25T14:12:35.401Z,95772.00
2022-11-25T14:18:51.187Z,95782.00
2022-11-25T14:24:43.630Z,95786.00
2022-11-25T14:30:12.180Z,95788.00
2022-11-25T14:35:52.410Z,95803.00
2022-11-25T14:41:25.561Z,95802.00
2022-11-25T14:46:55.572Z,95828.00
2022-11-25T14:52:37.407Z,95836.00
2022-11-25T14:58:05.516Z,95855.00
2022-11-25T15:03:34.088Z,95857.00
2022-11-25T15:09:02.625Z,95869.00
2022-11-25T15:14:36.475Z,95881.00
2022-11-25T15:20:15.228Z,95884.00
2022-11-25T15:25:53.839Z,95889.00
2022-11-25T15:31:25.206Z,95893.00
2022-11-25T15:36:54.685Z,95909.00
2022-11-25T15:42:28.396Z,95902.00
2022-11-25T15:47:57.699Z,95915.00
2022-11-25T15:53:32.937Z,95913.00
2022-11-25T15:59:02.103Z,95918.00
2022-11-25T16:04:30.276Z,95916.00
2022-11-25T16:09:58.365Z,95936.00
2022-11-25T16:15:43.773Z,95940.00
2022-11-25T16:21:18.013Z,95957.00
2022-11-25T16:27:17.503Z,95958.00
2022-11-25T16:32:45.859Z,95954.00
2022-11-25T16:38:13.948Z,95953.00
2022-11-25T16:43:42.030Z,95958.00
2022-11-25T16:49:14.791Z,95956.00
2022-11-25T16:54:43.207Z,95975.00
2022-11-25T17:00:17.989Z,95992.00
2022-11-25T17:05:46.951Z,95994.00
2022-11-25T17:11:44.942Z,96006.00
2022-11-25T17:17:24.837Z,96022.00
2022-11-25T17:22:54.143Z,96035.00
2022-11-25T17:28:22.427Z,96048.00
2022-11-25T17:33:50.852Z,96059.00
2022-11-25T17:39:19.032Z,96061.00
2022-11-25T17:44:51.348Z,96067.00
2022-11-25T17:50:23.503Z,96079.00
2022-11-25T17:55:53.207Z,96088.00
2022-11-25T18:01:21.548Z,96093.00
2022-11-25T18:06:50.086Z,96098.00
2022-11-25T18:12:27.626Z,96100.00
2022-11-25T18:18:04.725Z,96108.00
2022-11-25T18:23:32.904Z,96120.00
2022-11-25T18:29:02.534Z,96124.00
2022-11-25T18:34:31.164Z,96135.00
2022-11-25T18:39:59.381Z,96134.00
